首页
METAR-TAF:

METAR-TAF

机场 :

新潟機場

新潟, 日本

纬度: 37-57N, 经度: 139-07E, 海拔: 1米

当前天气观测

该预报发布于38分钟前的04:00 UTC
风速12节,风向北转西北
温度 7°C
湿度 66%
气压 1021 hPa
能见度10公里或以上
少量云层高于3000英尺
多云层高于4000英尺

METAR: RJSN 210400Z 33012KT 9999 FEW030 BKN040 07/01 Q1021

时间: 13:38 (04:38 UTC)

预报

该预报发布于5小时和33分钟前的23:05 UTC
预报有效从21日的 00点(UTC)到 22日的 06点(UTC)
风速12节,风向西北
能见度10公里或以上
少量云层高于1500英尺
多云层高于3000英尺
成为
从 21日的 15点(UTC)到 21日的 18点(UTC)
风速6节,风向

TAF: RJSN 202305Z 2100/2206 32012KT 9999 FEW015 BKN030 BECMG 2115/2118 19006KT

超过4000个机场的气象观测和天气预报(METAR&TAF报告)。

可查询的气象台以黄色和红色小点在地图上表示。

将鼠标移到小点上方,可查看气象台名称。

然后点击查看天气观测和预报。

如需切换地图:点击带黑十字的绿色按钮放大地图;点击带横线的绿色按钮缩小地图;或者点击绿色箭头查看邻近地区的地图。


METAR-TAF: